Skip Navigation Links Skip Navigation Links

Current Weather

Morristown Muni, Morristown, N.J.

For information only: do not use for flight planning or navigation.
Latest weather
Observation time Wednesday, August 12, 2020 12:45 PM EDT
Local time Wednesday, August 12, 2020 1:34 PM EDT
Flight conditions Visual Meteorological Conditions
Winds
Wind speed calm
Visibility 10 mi.
Sky condition
Ceiling unlimited
Cloud layer scattered clouds 5,000 ft.
Temperature 90°F
Dewpoint 73°F
Altimeter 30.02 in.Hg
Derived measurements
Relative humidity 59%
Heat index 98°F
Density altitude 2392 ft.
METAR KMMU 121645Z 00000KT 10SM SCT050 32/23 A3002

Settings

Location code

InnerDrive.Weather 4.0.6770.0 Release CLR 4.0.30319.42000
Copyright ©2018 Inner Drive Technology. All rights reserved. Portions Copyright ©1986-2018 David Braverman.

Find weather

Site navigation


Skip Navigation Links

Place info

Page info

PayPal - The safer, easier way to pay online!

Return home.

Copyright ©2020 Inner Drive Technology. Purveyors of fine, hand-crafted computer software. Page printed 2020-08-12T17:34:45 UTC.